Time;durP1;ratioP1;P1;durP2;ratioP2;P2;SDS_P1;SDS_P2;PMS_P1;PMS_P2;Temp;Humidity;BMP_temperature;BMP_pressure;BME280_temperature;BME280_humidity;BME280_pressure;Samples;Min_cycle;Max_cycle;Signal;HPM_P1;HPM_P2
2023/06/13 00:01:48;;;;;;;6.53;2.05;;;;;;;20.00;71.66;99393.56;5037421;28;20021;-69
2023/06/13 00:04:24;;;;;;;6.30;1.80;;;;;;;19.95;71.64;99391.16;5019539;28;20088;-70
2023/06/13 00:06:50;;;;;;;10.45;2.05;;;;;;;19.92;72.21;99386.00;5037466;28;20033;-69
2023/06/13 00:09:18;;;;;;;7.35;2.03;;;;;;;19.92;72.04;99386.84;5037233;28;20033;-70
2023/06/13 00:11:49;;;;;;;5.70;1.85;;;;;;;19.91;72.10;99385.13;5037226;28;20028;-69
2023/06/13 00:14:16;;;;;;;6.78;1.95;;;;;;;19.90;72.23;99377.19;5037304;28;20026;-70
2023/06/13 00:16:43;;;;;;;7.10;2.03;;;;;;;19.88;71.76;99377.25;5037060;28;20021;-69
2023/06/13 00:19:09;;;;;;;4.78;2.05;;;;;;;19.85;72.30;99369.44;5019169;28;20040;-70
2023/06/13 00:21:36;;;;;;;7.55;1.95;;;;;;;19.83;72.29;99365.09;5037175;28;20022;-69
2023/06/13 00:24:01;;;;;;;5.82;2.10;;;;;;;19.83;72.11;99365.97;5018893;28;20036;-69
2023/06/13 00:26:27;;;;;;;4.87;1.50;;;;;;;19.85;72.53;99363.22;5036840;28;20037;-70
2023/06/13 00:28:52;;;;;;;6.53;2.30;;;;;;;19.85;72.30;99349.84;5018907;28;20025;-70
2023/06/13 00:31:19;;;;;;;5.10;2.20;;;;;;;19.85;72.30;99348.06;5036892;28;20032;-70
2023/06/13 00:33:44;;;;;;;5.93;1.80;;;;;;;19.86;72.19;99362.25;5036755;28;20081;-69
2023/06/13 00:36:15;;;;;;;5.83;1.97;;;;;;;19.85;72.11;99358.75;5036988;28;20464;-70
2023/06/13 00:38:41;;;;;;;5.68;2.05;;;;;;;19.80;72.39;99356.31;5036864;28;20024;-70
2023/06/13 00:41:06;;;;;;;5.20;2.23;;;;;;;19.73;72.51;99365.66;5037308;28;20021;-69
2023/06/13 00:43:32;;;;;;;8.23;2.20;;;;;;;19.68;72.75;99357.03;5039556;28;20021;-69
2023/06/13 00:46:00;;;;;;;6.30;2.05;;;;;;;19.61;72.96;99361.84;5035727;28;20056;-70
2023/06/13 00:48:27;;;;;;;5.03;1.67;;;;;;;19.59;72.96;99357.53;5018509;28;20049;-69
2023/06/13 00:50:54;;;;;;;6.40;2.05;;;;;;;19.58;73.12;99364.72;5036578;28;20454;-70
2023/06/13 00:53:21;;;;;;;6.40;1.80;;;;;;;19.59;73.12;99366.44;5036601;28;20099;-69
2023/06/13 00:55:49;;;;;;;6.80;1.80;;;;;;;19.59;73.14;99358.41;5036226;28;20029;-69
2023/06/13 00:58:15;;;;;;;7.35;2.00;;;;;;;19.62;72.69;99358.25;5036369;28;20030;-69
2023/06/13 01:00:44;;;;;;;5.05;1.85;;;;;;;19.62;72.79;99354.69;5036407;28;20065;-69
2023/06/13 01:03:15;;;;;;;7.55;2.03;;;;;;;19.59;72.84;99346.84;5036473;28;20037;-69
2023/06/13 01:05:47;;;;;;;8.18;2.30;;;;;;;19.57;72.90;99348.75;5018696;28;20386;-70
2023/06/13 01:08:21;;;;;;;6.90;2.03;;;;;;;19.55;72.95;99353.31;5023467;28;20048;-69
2023/06/13 01:11:06;;;;;;;5.43;1.90;;;;;;;19.47;72.97;99354.63;5018178;28;20022;-70
2023/06/13 01:13:47;;;;;;;7.43;2.13;;;;;;;19.40;72.90;99349.69;5036387;28;20033;-70
2023/06/13 01:16:24;;;;;;;5.82;2.08;;;;;;;19.34;73.27;99354.44;5036189;28;20048;-70
2023/06/13 01:18:51;;;;;;;4.60;1.73;;;;;;;19.32;73.35;99347.44;5035313;28;20103;-70
2023/06/13 01:21:20;;;;;;;5.50;1.90;;;;;;;19.32;73.82;99356.34;5036345;28;20068;-70
2023/06/13 01:24:00;;;;;;;5.75;2.22;;;;;;;19.30;73.88;99352.03;5036187;28;20033;-69
2023/06/13 01:26:44;;;;;;;6.53;1.83;;;;;;;19.29;73.72;99347.63;5036036;28;20037;-69
2023/06/13 01:29:10;;;;;;;5.90;1.80;;;;;;;19.27;73.73;99339.69;5036080;28;20029;-70
2023/06/13 01:31:37;;;;;;;5.97;2.05;;;;;;;19.24;73.64;99336.34;5036016;28;20037;-70
2023/06/13 01:34:02;;;;;;;6.30;1.90;;;;;;;19.18;74.13;99338.41;5036162;28;20117;-69
2023/06/13 01:36:29;;;;;;;7.88;1.90;;;;;;;19.18;73.98;99343.75;5018354;28;20064;-70
2023/06/13 01:38:54;;;;;;;6.38;1.90;;;;;;;19.17;73.82;99336.69;5018239;28;20030;-70
2023/06/13 01:41:20;;;;;;;5.60;1.70;;;;;;;19.16;73.84;99337.59;5038615;28;20027;-70
2023/06/13 01:43:45;;;;;;;6.70;2.03;;;;;;;19.14;74.09;99326.16;5037304;28;20033;-70
2023/06/13 01:46:33;;;;;;;5.15;1.80;;;;;;;19.08;74.12;99326.50;5035907;28;20537;-70
2023/06/13 01:49:05;;;;;;;11.63;2.10;;;;;;;19.04;73.95;99324.94;5036029;28;20033;-70
2023/06/13 01:51:30;;;;;;;6.10;1.92;;;;;;;19.02;74.43;99321.50;5018066;28;20036;-70
2023/06/13 01:54:01;;;;;;;7.43;1.93;;;;;;;18.99;74.25;99305.69;5036001;28;20029;-70
2023/06/13 01:56:31;;;;;;;8.05;2.10;;;;;;;18.99;74.21;99305.69;5035663;28;20087;-70
2023/06/13 01:59:04;;;;;;;5.72;1.80;;;;;;;19.01;74.18;99307.28;5038786;28;20472;-70
2023/06/13 02:01:32;;;;;;;5.18;1.83;;;;;;;19.05;74.06;99300.00;5021810;28;20036;-70
2023/06/13 02:04:01;;;;;;;5.63;1.85;;;;;;;19.07;73.83;99300.78;5039923;28;20041;-70
2023/06/13 02:06:27;;;;;;;8.23;2.20;;;;;;;19.07;73.77;99287.44;5039721;28;20116;-70
2023/06/13 02:08:52;;;;;;;6.97;1.65;;;;;;;19.04;73.92;99287.59;5039613;28;20112;-69
2023/06/13 02:11:18;;;;;;;7.80;1.80;;;;;;;18.95;74.34;99283.59;5021402;28;20452;-70
2023/06/13 02:13:43;;;;;;;11.50;1.93;;;;;;;18.94;74.23;99279.19;5039769;28;20056;-69
2023/06/13 02:16:08;;;;;;;6.07;1.70;;;;;;;18.96;74.06;99269.31;5038601;28;20116;-69
2023/06/13 02:18:35;;;;;;;7.10;2.05;;;;;;;18.98;74.06;99272.78;5039603;28;20025;-70
2023/06/13 02:21:00;;;;;;;6.70;1.73;;;;;;;19.00;73.70;99272.72;5039174;28;20075;-69
2023/06/13 02:23:25;;;;;;;8.07;1.92;;;;;;;18.99;73.88;99263.84;5039508;28;20108;-69
2023/06/13 02:25:55;;;;;;;5.97;1.80;;;;;;;18.97;74.08;99264.84;5038970;28;20087;-69
2023/06/13 02:28:21;;;;;;;5.45;2.30;;;;;;;18.89;74.11;99266.09;5039283;28;20025;-69
2023/06/13 02:30:47;;;;;;;5.90;1.70;;;;;;;18.84;74.46;99264.66;5038891;28;20032;-69
2023/06/13 02:33:15;;;;;;;4.35;1.55;;;;;;;18.82;74.38;99259.41;5039114;28;20021;-70
2023/06/13 02:35:45;;;;;;;9.50;2.08;;;;;;;18.83;74.22;99258.44;5039002;28;20026;-69
2023/06/13 02:38:11;;;;;;;6.23;2.10;;;;;;;18.84;74.39;99254.84;5039056;28;20029;-70
2023/06/13 02:40:37;;;;;;;5.03;2.08;;;;;;;18.86;74.44;99249.44;5038931;28;20013;-69
2023/06/13 02:43:03;;;;;;;8.23;2.27;;;;;;;18.88;74.17;99245.72;5043081;28;20021;-70
2023/06/13 02:45:29;;;;;;;7.97;2.00;;;;;;;18.89;74.41;99244.78;5038925;28;20461;-69
2023/06/13 02:47:55;;;;;;;7.90;2.40;;;;;;;18.90;74.11;99243.81;5038967;28;20033;-69
2023/06/13 02:50:20;;;;;;;7.30;2.30;;;;;;;18.93;74.44;99245.47;5038874;28;20288;-69
2023/06/13 02:52:47;;;;;;;8.47;2.07;;;;;;;18.92;74.19;99236.59;5021219;28;20029;-70
2023/06/13 02:55:13;;;;;;;5.93;2.13;;;;;;;18.93;74.18;99241.00;5020996;28;20267;-69
2023/06/13 02:57:38;;;;;;;9.35;2.60;;;;;;;18.94;74.34;99233.84;5021219;28;20018;-70
2023/06/13 03:00:07;;;;;;;5.93;2.37;;;;;;;18.92;74.29;99236.59;5038858;28;20031;-69
2023/06/13 03:02:32;;;;;;;5.45;2.00;;;;;;;18.90;74.06;99235.81;5039252;28;20071;-69
2023/06/13 03:04:58;;;;;;;5.50;2.25;;;;;;;18.92;74.12;99230.41;5038974;28;20021;-69
2023/06/13 03:07:23;;;;;;;8.33;2.40;;;;;;;18.91;74.55;99223.34;5039198;28;20025;-69
2023/06/13 03:09:49;;;;;;;5.57;2.33;;;;;;;18.89;74.44;99214.59;5037643;28;20052;-69
2023/06/13 03:12:14;;;;;;;7.38;2.55;;;;;;;18.88;74.10;99216.38;5021322;28;20034;-69
2023/06/13 03:14:41;;;;;;;6.53;2.17;;;;;;;18.89;74.41;99225.25;5039115;28;20029;-70
2023/06/13 03:17:06;;;;;;;8.15;2.25;;;;;;;18.88;74.34;99213.72;5038639;28;20079;-69
2023/06/13 03:19:32;;;;;;;7.93;2.67;;;;;;;18.90;74.08;99221.63;5038774;28;20037;-69
2023/06/13 03:21:57;;;;;;;7.13;2.60;;;;;;;18.85;74.50;99219.22;5038684;28;20030;-69
2023/06/13 03:24:22;;;;;;;6.13;2.30;;;;;;;18.77;74.77;99224.97;5038491;28;20025;-69
2023/06/13 03:26:48;;;;;;;6.60;2.50;;;;;;;18.74;74.66;99221.63;5038693;28;20034;-69
2023/06/13 03:29:13;;;;;;;6.67;2.70;;;;;;;18.69;74.92;99223.66;5017140;28;20413;-69
2023/06/13 03:31:39;;;;;;;6.13;2.77;;;;;;;18.64;75.06;99235.44;5031568;28;20474;-69
2023/06/13 03:34:05;;;;;;;9.00;2.87;;;;;;;18.58;75.17;99222.44;5038482;28;20025;-69
2023/06/13 03:36:33;;;;;;;6.15;3.13;;;;;;;18.47;75.48;99235.50;5038439;28;20033;-69
2023/06/13 03:38:58;;;;;;;8.60;3.03;;;;;;;18.38;75.79;99225.31;5038398;28;20029;-69
2023/06/13 03:41:25;;;;;;;12.83;3.83;;;;;;;18.27;75.97;99228.56;5023695;28;20555;-69
2023/06/13 03:43:50;;;;;;;13.82;3.45;;;;;;;18.21;75.96;99213.78;5038700;28;20104;-69
2023/06/13 03:46:15;;;;;;;6.40;3.10;;;;;;;18.16;75.96;99207.81;5038154;28;20033;-69
2023/06/13 03:48:41;;;;;;;8.07;3.07;;;;;;;18.16;76.09;99203.34;5037987;28;20462;-70
2023/06/13 03:51:06;;;;;;;8.27;2.78;;;;;;;18.19;76.13;99204.97;5038147;28;20037;-69
2023/06/13 03:53:31;;;;;;;7.80;3.03;;;;;;;18.26;75.71;99211.72;5020241;28;20025;-69
2023/06/13 03:55:57;;;;;;;9.10;2.80;;;;;;;18.30;75.78;99207.06;5038120;28;20044;-69
2023/06/13 03:58:24;;;;;;;8.27;2.53;;;;;;;18.34;75.38;99204.16;5020152;28;20022;-69
2023/06/13 04:00:50;;;;;;;7.63;2.70;;;;;;;18.40;75.44;99207.44;5038010;28;20025;-69
2023/06/13 04:03:17;;;;;;;12.27;2.90;;;;;;;18.42;75.47;99210.88;5038134;28;20056;-69
2023/06/13 04:05:42;;;;;;;9.38;2.58;;;;;;;18.42;75.12;99221.53;5020352;28;20040;-69
2023/06/13 04:08:08;;;;;;;9.77;2.80;;;;;;;18.38;75.46;99230.66;5037649;28;20033;-69
2023/06/13 04:10:34;;;;;;;8.63;3.07;;;;;;;18.34;75.54;99236.16;5037800;28;20025;-69
2023/06/13 04:12:59;;;;;;;7.93;3.30;;;;;;;18.31;75.49;99238.97;5020056;28;20030;-69
2023/06/13 04:15:24;;;;;;;9.40;3.00;;;;;;;18.25;75.78;99247.31;5019981;28;20097;-69
2023/06/13 04:17:52;;;;;;;11.30;3.60;;;;;;;18.22;76.37;99250.13;5037671;28;20029;-69
2023/06/13 04:20:19;;;;;;;10.40;3.85;;;;;;;18.18;76.39;99251.22;5037710;28;20029;-69
2023/06/13 04:22:45;;;;;;;9.23;2.78;;;;;;;18.15;76.42;99262.91;5037618;28;20021;-69
2023/06/13 04:25:10;;;;;;;7.45;2.85;;;;;;;18.18;76.28;99261.88;5037278;28;20025;-69
2023/06/13 04:27:36;;;;;;;9.13;3.13;;;;;;;18.23;76.26;99259.84;5037766;28;20033;-69
2023/06/13 04:30:02;;;;;;;7.37;3.33;;;;;;;18.24;76.14;99261.56;5037138;28;20497;-69
2023/06/13 04:32:28;;;;;;;9.07;3.15;;;;;;;18.26;76.07;99267.69;5019617;28;20033;-70
2023/06/13 04:34:55;;;;;;;8.80;3.30;;;;;;;18.28;76.21;99262.25;5037333;28;20116;-69
2023/06/13 04:37:25;;;;;;;10.63;3.25;;;;;;;18.27;76.20;99266.75;5037339;28;20498;-69
2023/06/13 04:39:55;;;;;;;11.57;3.50;;;;;;;18.27;76.13;99272.06;5019396;28;20035;-70
2023/06/13 04:42:27;;;;;;;6.93;3.17;;;;;;;18.29;76.09;99286.19;5041692;28;20037;-70
2023/06/13 04:44:55;;;;;;;10.80;3.17;;;;;;;18.28;76.44;99289.78;5037145;28;20021;-69
2023/06/13 04:47:23;;;;;;;11.55;3.13;;;;;;;18.29;76.04;99285.31;5037285;28;20053;-69
2023/06/13 04:49:51;;;;;;;8.60;3.03;;;;;;;18.29;76.71;99291.50;5037109;28;20041;-69
2023/06/13 04:52:18;;;;;;;11.23;3.40;;;;;;;18.29;76.91;99302.16;5037407;28;20104;-69
2023/06/13 04:54:45;;;;;;;10.52;3.80;;;;;;;18.31;76.75;99304.72;5037142;28;20025;-69
2023/06/13 04:57:12;;;;;;;8.15;3.45;;;;;;;18.33;76.79;99301.06;5019253;28;20505;-69
2023/06/13 04:59:39;;;;;;;7.68;3.20;;;;;;;18.41;76.71;99300.66;5036969;28;20117;-69
2023/06/13 05:02:04;;;;;;;7.55;3.35;;;;;;;18.56;76.30;99300.78;5037236;28;20032;-69
2023/06/13 05:04:30;;;;;;;10.73;3.67;;;;;;;18.61;76.07;99299.59;5036135;28;20037;-69
2023/06/13 05:06:57;;;;;;;9.95;3.33;;;;;;;18.69;75.92;99303.66;5037076;28;20052;-69
2023/06/13 05:09:23;;;;;;;10.70;3.70;;;;;;;18.71;75.96;99301.81;5036686;28;20040;-69
2023/06/13 05:11:48;;;;;;;9.50;3.17;;;;;;;18.67;76.37;99300.22;5037079;28;20029;-69
2023/06/13 05:14:14;;;;;;;7.77;3.30;;;;;;;18.62;76.50;99308.47;5036873;28;20040;-69
2023/06/13 05:16:40;;;;;;;7.73;3.40;;;;;;;18.60;76.74;99315.69;5036800;28;20060;-69
2023/06/13 05:19:06;;;;;;;12.98;3.45;;;;;;;18.60;76.83;99313.03;5019055;28;20028;-69
2023/06/13 05:21:33;;;;;;;9.43;3.53;;;;;;;18.60;76.98;99315.69;5036878;28;20379;-69
2023/06/13 05:23:58;;;;;;;8.82;3.30;;;;;;;18.57;77.12;99314.06;5036609;28;20029;-69
2023/06/13 05:26:24;;;;;;;6.27;3.10;;;;;;;18.56;77.15;99303.44;5036645;28;20121;-69
2023/06/13 05:28:50;;;;;;;8.52;3.25;;;;;;;18.60;77.06;99310.38;5036309;28;20021;-69
2023/06/13 05:31:15;;;;;;;5.70;2.80;;;;;;;18.61;77.37;99312.94;5018930;28;20486;-69
2023/06/13 05:33:41;;;;;;;8.48;3.42;;;;;;;18.64;77.02;99306.59;5021531;28;20401;-69
2023/06/13 05:36:06;;;;;;;9.80;3.43;;;;;;;18.68;76.89;99299.28;5041093;28;20444;-69
2023/06/13 05:38:32;;;;;;;8.30;3.20;;;;;;;18.73;76.93;99289.25;5040566;28;20032;-69
2023/06/13 05:40:58;;;;;;;10.05;3.63;;;;;;;18.76;76.70;99294.41;5037042;28;20536;-69
2023/06/13 05:43:23;;;;;;;12.37;2.90;;;;;;;18.82;76.62;99296.75;5038105;28;20029;-69
2023/06/13 05:45:49;;;;;;;9.63;3.43;;;;;;;18.87;76.62;99296.50;5033730;28;20054;-69
2023/06/13 05:48:15;;;;;;;10.98;3.60;;;;;;;18.91;76.78;99303.38;5040175;28;20057;-69
2023/06/13 05:50:40;;;;;;;10.20;3.70;;;;;;;18.91;76.96;99306.06;5040494;28;20037;-69
2023/06/13 05:53:06;;;;;;;13.50;3.50;;;;;;;18.93;76.80;99302.38;5040404;28;20029;-69
2023/06/13 05:55:31;;;;;;;8.03;3.30;;;;;;;19.00;76.56;99302.91;5040152;28;20038;-69
2023/06/13 05:57:56;;;;;;;9.47;3.80;;;;;;;19.05;76.41;99300.88;5040151;28;20030;-69
2023/06/13 06:00:22;;;;;;;9.60;4.50;;;;;;;19.10;76.67;99297.09;5040171;28;20120;-69
2023/06/13 06:02:48;;;;;;;9.23;3.80;;;;;;;19.14;76.60;99304.81;5036564;28;20760;-69
2023/06/13 06:05:14;;;;;;;11.40;3.88;;;;;;;19.16;76.61;99300.25;5038574;28;20383;-69
2023/06/13 06:07:42;;;;;;;12.00;3.87;;;;;;;19.20;76.36;99304.50;5040310;28;20052;-69
2023/06/13 06:10:08;;;;;;;14.70;4.38;;;;;;;19.17;76.58;99310.00;5039813;28;20026;-69
2023/06/13 06:12:34;;;;;;;9.77;4.55;;;;;;;19.12;76.97;99306.72;5039527;28;20063;-69
2023/06/13 06:15:00;;;;;;;10.02;4.20;;;;;;;19.12;76.94;99309.38;5039897;28;20549;-69
2023/06/13 06:17:25;;;;;;;12.27;4.07;;;;;;;19.11;77.24;99307.66;5039941;28;20038;-68
2023/06/13 06:19:51;;;;;;;9.23;4.30;;;;;;;19.08;77.42;99311.38;5040001;28;20036;-68
2023/06/13 06:22:16;;;;;;;9.18;4.50;;;;;;;19.06;77.21;99309.72;5039849;28;20039;-68
2023/06/13 06:24:42;;;;;;;8.27;3.67;;;;;;;19.05;77.42;99305.34;5036900;28;20052;-68
2023/06/13 06:27:07;;;;;;;11.15;4.00;;;;;;;19.08;77.13;99310.50;5034893;28;20101;-68
2023/06/13 06:29:33;;;;;;;10.30;3.70;;;;;;;19.11;77.09;99315.66;5039211;28;20068;-68
2023/06/13 06:31:58;;;;;;;10.17;3.80;;;;;;;19.14;77.23;99311.97;5039498;28;20040;-68
2023/06/13 06:34:24;;;;;;;9.67;3.63;;;;;;;19.18;77.34;99317.06;5039471;28;20026;-68
2023/06/13 06:36:49;;;;;;;8.23;3.47;;;;;;;19.22;76.86;99312.41;5039654;28;20057;-68
2023/06/13 06:39:15;;;;;;;11.40;3.77;;;;;;;19.24;77.30;99315.00;5039382;28;20688;-67
2023/06/13 06:41:41;;;;;;;10.82;4.10;;;;;;;19.22;77.29;99315.94;5043596;28;20025;-67
2023/06/13 06:44:07;;;;;;;7.65;4.00;;;;;;;19.20;77.22;99312.50;5017595;28;20061;-68
2023/06/13 06:46:33;;;;;;;8.23;3.47;;;;;;;19.21;77.67;99306.22;5039063;28;20087;-68
2023/06/13 06:48:58;;;;;;;9.77;4.07;;;;;;;19.26;77.77;99307.75;5038343;28;20627;-68
2023/06/13 06:51:23;;;;;;;8.55;4.18;;;;;;;19.34;77.77;99313.53;5038934;28;20051;-68
2023/06/13 06:53:50;;;;;;;10.20;3.50;;;;;;;19.45;77.57;99319.13;5031210;28;20057;-68
2023/06/13 06:56:16;;;;;;;7.90;3.30;;;;;;;19.55;77.56;99318.59;5034414;28;20032;-68
2023/06/13 06:58:42;;;;;;;8.02;2.90;;;;;;;19.60;77.32;99317.41;5035804;28;20033;-68
2023/06/13 07:01:08;;;;;;;8.80;2.57;;;;;;;19.71;76.56;99316.78;5038568;28;20021;-68
2023/06/13 07:03:33;;;;;;;6.50;2.20;;;;;;;19.84;76.01;99318.75;5031110;28;20057;-68
2023/06/13 07:05:59;;;;;;;7.83;1.80;;;;;;;19.93;76.05;99320.94;5032064;28;20112;-68
2023/06/13 07:08:24;;;;;;;5.77;1.60;;;;;;;19.99;75.70;99325.03;5038591;28;20532;-68
2023/06/13 07:10:50;;;;;;;5.70;1.90;;;;;;;19.97;75.12;99322.47;5038527;28;20478;-68
2023/06/13 07:13:15;;;;;;;6.20;1.90;;;;;;;20.02;74.92;99322.22;5038812;28;20068;-69
2023/06/13 07:15:41;;;;;;;8.07;2.07;;;;;;;20.07;74.74;99320.97;5034348;28;20513;-68
2023/06/13 07:18:08;;;;;;;5.40;1.90;;;;;;;20.20;74.93;99315.75;5038509;28;20029;-68
2023/06/13 07:20:33;;;;;;;4.97;2.00;;;;;;;20.36;74.67;99318.38;5020833;28;20268;-68
2023/06/13 07:22:58;;;;;;;4.00;1.52;;;;;;;20.56;74.22;99307.44;5038685;28;20387;-69
2023/06/13 07:25:24;;;;;;;8.33;2.10;;;;;;;20.69;73.31;99311.06;5037919;28;20025;-68
2023/06/13 07:27:49;;;;;;;7.87;1.97;;;;;;;20.78;73.22;99310.50;5037332;28;20120;-68
2023/06/13 07:30:15;;;;;;;5.20;1.60;;;;;;;20.90;72.86;99298.22;5038113;28;20037;-68
2023/06/13 07:32:40;;;;;;;7.15;1.58;;;;;;;21.04;72.12;99309.84;5038478;28;20110;-68
2023/06/13 07:35:06;;;;;;;5.53;1.23;;;;;;;21.08;71.96;99296.19;5019999;28;20033;-68
2023/06/13 07:37:31;;;;;;;5.47;1.30;;;;;;;21.21;71.17;99296.25;5037848;28;20087;-68
2023/06/13 07:39:57;;;;;;;4.00;1.30;;;;;;;21.48;70.65;99303.47;5038059;28;20033;-68
2023/06/13 07:42:22;;;;;;;4.03;0.80;;;;;;;21.64;70.11;99292.63;5043029;28;20037;-68
2023/06/13 07:44:48;;;;;;;4.13;1.10;;;;;;;21.87;68.76;99286.72;5020278;28;20036;-68
2023/06/13 07:47:13;;;;;;;4.00;1.15;;;;;;;22.13;68.85;99286.78;5027106;28;20065;-68
2023/06/13 07:49:39;;;;;;;4.20;1.13;;;;;;;22.44;67.80;99284.66;5038040;28;20029;-68
2023/06/13 07:52:05;;;;;;;4.83;1.07;;;;;;;22.58;67.50;99286.41;5037507;28;20060;-68
2023/06/13 07:54:30;;;;;;;4.22;1.25;;;;;;;22.60;67.19;99285.34;5037972;28;20056;-68
2023/06/13 07:56:57;;;;;;;3.87;1.20;;;;;;;22.69;66.74;99282.97;5036990;28;20053;-68
2023/06/13 07:59:23;;;;;;;5.00;1.55;;;;;;;22.89;66.45;99285.09;5038087;28;20025;-68
2023/06/13 08:01:48;;;;;;;3.70;1.10;;;;;;;23.07;65.38;99292.81;5037922;28;20524;-68
2023/06/13 08:04:14;;;;;;;4.23;1.30;;;;;;;23.23;64.40;99288.03;5037954;28;20013;-69
2023/06/13 08:06:39;;;;;;;3.90;1.23;;;;;;;23.28;64.34;99295.78;5019911;28;20037;-68
2023/06/13 08:09:08;;;;;;;5.73;1.33;;;;;;;23.25;64.58;99292.41;5036986;28;20151;-69
2023/06/13 08:11:34;;;;;;;4.72;1.60;;;;;;;23.16;64.94;99297.50;5037782;28;20033;-69
2023/06/13 08:14:00;;;;;;;6.47;1.70;;;;;;;23.07;64.67;99292.81;5037820;28;20033;-69
2023/06/13 08:16:25;;;;;;;5.10;1.63;;;;;;;23.15;64.99;99298.47;5037424;28;20032;-69
2023/06/13 08:18:51;;;;;;;4.63;1.67;;;;;;;23.37;65.23;99294.25;5019493;28;20400;-69
2023/06/13 08:21:16;;;;;;;5.87;1.50;;;;;;;23.61;63.89;99296.09;5035828;28;20028;-69
2023/06/13 08:23:41;;;;;;;6.93;1.40;;;;;;;23.70;63.71;99292.72;5037493;28;20026;-69
2023/06/13 08:26:07;;;;;;;4.40;1.50;;;;;;;23.64;63.47;99291.38;5037337;28;20303;-69
2023/06/13 08:28:33;;;;;;;3.93;1.40;;;;;;;23.59;63.35;99293.53;5037075;28;20545;-69
2023/06/13 08:30:59;;;;;;;4.70;1.10;;;;;;;23.63;62.86;99302.22;5036969;28;20517;-69
2023/06/13 08:33:25;;;;;;;5.97;1.40;;;;;;;23.62;63.17;99290.59;5037283;28;20104;-69
2023/06/13 08:35:51;;;;;;;4.13;1.40;;;;;;;23.68;63.36;99291.97;5024390;28;20089;-69
2023/06/13 08:38:16;;;;;;;4.63;1.30;;;;;;;23.83;62.60;99299.88;5018599;28;20540;-69
2023/06/13 08:40:42;;;;;;;4.20;1.20;;;;;;;23.94;61.35;99298.09;5019222;28;20041;-69
2023/06/13 08:43:07;;;;;;;3.87;1.20;;;;;;;24.11;61.54;99289.75;5022079;28;20170;-69
2023/06/13 08:45:33;;;;;;;3.65;1.25;;;;;;;24.35;62.37;99285.16;5036193;28;20025;-69
2023/06/13 08:47:59;;;;;;;4.10;1.30;;;;;;;24.65;61.66;99281.03;5035558;28;20052;-69
2023/06/13 08:50:26;;;;;;;4.07;1.40;;;;;;;24.98;60.83;99281.19;5034420;28;20029;-69
2023/06/13 08:52:54;;;;;;;3.20;1.10;;;;;;;25.20;60.10;99274.94;5036856;28;20107;-69
2023/06/13 08:55:23;;;;;;;3.73;1.13;;;;;;;25.17;60.08;99280.56;5036819;28;20031;-69
2023/06/13 08:57:52;;;;;;;3.75;1.30;;;;;;;25.11;59.53;99275.69;5036751;28;20029;-69
2023/06/13 09:00:18;;;;;;;4.55;1.25;;;;;;;25.04;60.17;99272.63;5035405;28;20055;-70
2023/06/13 09:02:46;;;;;;;3.55;1.30;;;;;;;25.18;60.38;99281.44;5019260;28;20025;-69
2023/06/13 09:05:18;;;;;;;6.50;1.48;;;;;;;24.97;57.31;99273.25;5036747;28;20025;-69
2023/06/13 09:07:45;;;;;;;4.83;1.60;;;;;;;25.03;59.61;99270.06;5035214;28;20383;-69
2023/06/13 09:10:12;;;;;;;4.95;1.45;;;;;;;25.14;58.84;99274.59;5015519;28;20026;-69
2023/06/13 09:12:43;;;;;;;3.75;1.50;;;;;;;25.10;58.54;99265.88;5036227;28;20036;-70
2023/06/13 09:15:10;;;;;;;5.18;1.60;;;;;;;25.29;58.99;99261.69;5035732;28;20025;-70
2023/06/13 09:17:35;;;;;;;5.28;1.58;;;;;;;25.44;59.02;99275.75;5035851;28;20061;-69
2023/06/13 09:20:03;;;;;;;4.20;1.70;;;;;;;25.44;59.50;99271.22;5036330;28;20029;-69
2023/06/13 09:22:28;;;;;;;5.60;1.33;;;;;;;25.43;59.33;99268.66;5036670;28;20025;-70
2023/06/13 09:24:55;;;;;;;4.17;1.57;;;;;;;25.49;57.80;99266.34;5036154;28;20029;-70
2023/06/13 09:27:22;;;;;;;3.97;1.48;;;;;;;25.36;59.01;99268.28;5018449;28;20053;-69
2023/06/13 09:29:51;;;;;;;4.93;1.63;;;;;;;25.28;59.69;99268.91;5036297;28;20041;-70
2023/06/13 09:32:19;;;;;;;4.03;1.58;;;;;;;25.13;58.74;99272.88;5036309;28;20025;-70
2023/06/13 09:34:45;;;;;;;4.70;1.80;;;;;;;25.07;59.28;99266.13;5018867;28;20036;-70
2023/06/13 09:37:11;;;;;;;7.03;1.90;;;;;;;25.34;59.21;99270.25;5036121;28;20482;-70
2023/06/13 09:39:53;;;;;;;4.15;1.70;;;;;;;25.64;57.96;99256.13;5035701;28;20029;-70
2023/06/13 09:42:24;;;;;;;4.50;1.67;;;;;;;25.80;56.86;99261.06;5036510;28;20033;-70
2023/06/13 09:44:51;;;;;;;5.43;1.80;;;;;;;25.73;57.30;99254.50;5035651;28;20040;-70
2023/06/13 09:47:25;;;;;;;6.18;1.90;;;;;;;25.55;57.32;99256.84;5027291;28;20038;-70
2023/06/13 09:49:57;;;;;;;5.55;1.90;;;;;;;25.37;57.69;99253.81;5036093;28;20064;-70
2023/06/13 09:52:27;;;;;;;5.05;1.58;;;;;;;25.47;57.98;99244.03;5036190;28;20386;-70
2023/06/13 09:54:53;;;;;;;4.70;1.70;;;;;;;25.61;57.54;99240.19;5036262;28;20029;-70
2023/06/13 09:57:22;;;;;;;4.47;1.53;;;;;;;25.74;57.97;99234.63;5036029;28;20084;-70
2023/06/13 09:59:50;;;;;;;3.95;1.52;;;;;;;26.00;56.87;99225.28;5036034;28;20025;-70
2023/06/13 10:02:16;;;;;;;4.18;1.23;;;;;;;26.31;55.75;99222.69;5036139;28;20075;-70
2023/06/13 10:04:43;;;;;;;5.13;1.60;;;;;;;26.55;54.86;99216.97;5018565;28;20025;-70
2023/06/13 10:07:12;;;;;;;5.45;1.70;;;;;;;26.72;54.05;99217.34;5035806;28;20081;-70
2023/06/13 10:09:38;;;;;;;5.33;1.70;;;;;;;26.89;54.97;99214.03;5035953;28;20032;-70
2023/06/13 10:12:10;;;;;;;5.38;1.50;;;;;;;26.83;53.18;99219.91;5036146;28;20469;-68
2023/06/13 10:14:40;;;;;;;4.03;1.58;;;;;;;26.67;54.47;99219.59;5036358;28;20494;-68
2023/06/13 10:17:08;;;;;;;5.28;1.73;;;;;;;26.58;54.78;99221.25;5033775;28;20033;-68
2023/06/13 10:19:37;;;;;;;4.87;1.60;;;;;;;26.58;54.66;99222.09;5037350;28;20072;-68
2023/06/13 10:22:05;;;;;;;3.38;1.33;;;;;;;26.67;55.02;99215.03;5039661;28;20390;-68
2023/06/13 10:24:34;;;;;;;5.43;1.80;;;;;;;26.79;55.02;99213.09;5039720;28;20037;-68
2023/06/13 10:27:02;;;;;;;5.40;1.88;;;;;;;26.69;54.33;99218.44;5039317;28;20583;-68
2023/06/13 10:30:09;;;;;;;5.60;1.73;;;;;;;26.45;54.86;99221.50;5022233;28;20452;-69
2023/06/13 10:33:16;;;;;;;5.77;1.60;;;;;;;26.59;55.43;99212.16;5038625;28;20063;-68
2023/06/13 10:36:23;;;;;;;6.28;1.63;;;;;;;27.06;54.83;99208.94;5011120;28;20469;-68
2023/06/13 10:38:57;;;;;;;4.35;1.90;;;;;;;27.56;52.77;99204.47;5039429;28;20051;-68
2023/06/13 10:41:40;;;;;;;5.35;1.90;;;;;;;27.88;53.67;99208.75;5039311;28;20113;-68
2023/06/13 10:44:27;;;;;;;3.90;1.80;;;;;;;28.23;53.33;99201.84;5027969;28;20033;-68
2023/06/13 10:46:53;;;;;;;6.63;1.70;;;;;;;28.62;52.49;99204.44;5028493;28;20604;-69
2023/06/13 10:49:18;;;;;;;8.82;2.00;;;;;;;28.82;51.27;99196.25;5021506;28;20088;-68
2023/06/13 10:51:45;;;;;;;4.77;1.60;;;;;;;29.02;51.25;99190.69;5038607;28;20044;-68
2023/06/13 10:54:13;;;;;;;7.13;1.80;;;;;;;29.21;50.30;99193.28;5038677;28;20489;-68
2023/06/13 10:56:43;;;;;;;6.00;2.10;;;;;;;29.23;49.99;99196.69;5038921;28;20087;-69
2023/06/13 10:59:15;;;;;;;4.57;1.70;;;;;;;29.02;50.12;99196.09;5039352;28;20025;-69
2023/06/13 11:01:42;;;;;;;4.05;1.70;;;;;;;28.64;48.83;99190.72;5038613;28;20025;-69
2023/06/13 11:04:09;;;;;;;9.20;2.10;;;;;;;28.26;49.56;99190.72;5039282;28;20029;-68
2023/06/13 11:06:36;;;;;;;4.00;1.55;;;;;;;28.21;50.29;99193.03;5021010;28;20055;-69
2023/06/13 11:09:18;;;;;;;6.00;1.77;;;;;;;28.24;50.60;99190.03;5038638;28;20037;-69
2023/06/13 11:11:58;;;;;;;4.90;1.80;;;;;;;28.19;50.26;99189.63;5027391;28;20029;-69
2023/06/13 11:14:31;;;;;;;3.90;1.50;;;;;;;28.01;50.51;99182.22;5031990;28;20041;-69
2023/06/13 11:16:57;;;;;;;5.20;1.60;;;;;;;27.89;51.27;99183.38;5038222;28;20025;-69
2023/06/13 11:19:24;;;;;;;4.85;1.70;;;;;;;27.73;51.71;99190.22;5038674;28;20029;-69
2023/06/13 11:21:59;;;;;;;5.35;2.05;;;;;;;27.61;51.59;99191.38;5038354;28;20034;-70
2023/06/13 11:24:27;;;;;;;5.70;1.97;;;;;;;27.60;51.54;99186.94;5020691;28;20064;-70
2023/06/13 11:26:55;;;;;;;4.38;1.90;;;;;;;27.66;51.37;99183.69;5038047;28;20033;-70
2023/06/13 11:29:22;;;;;;;6.50;1.60;;;;;;;27.87;51.20;99175.41;5020447;28;20029;-70
2023/06/13 11:31:51;;;;;;;7.38;1.90;;;;;;;27.81;50.83;99192.22;5037173;28;20025;-70
2023/06/13 11:34:20;;;;;;;4.30;1.77;;;;;;;27.58;51.18;99181.69;5025491;28;20025;-70